createdAt,value
2022-09-05T00:00:41.757Z,69.08
2022-09-05T00:01:41.796Z,70.53
2022-09-05T00:02:49.383Z,71.37
2022-09-05T00:03:42.853Z,71.10
2022-09-05T00:04:41.729Z,71.80
2022-09-05T00:06:02.345Z,72.11
2022-09-05T00:06:42.708Z,71.80
2022-09-05T00:07:59.784Z,71.77
2022-09-05T00:08:42.806Z,70.62
2022-09-05T00:09:41.700Z,71.47
2022-09-05T00:11:05.551Z,70.53
2022-09-05T00:11:44.102Z,70.73
2022-09-05T00:12:42.742Z,70.93
2022-09-05T00:13:41.668Z,71.00
2022-09-05T00:15:17.432Z,70.59
2022-09-05T00:15:42.728Z,70.39
2022-09-05T00:16:41.679Z,70.49
2022-09-05T00:18:32.456Z,70.29
2022-09-05T00:24:17.456Z,70.59
2022-09-05T00:24:22.172Z,71.00
2022-09-05T00:24:28.428Z,70.76
2022-09-05T00:24:29.218Z,70.66
2022-09-05T00:24:29.824Z,70.79
2022-09-05T00:24:36.408Z,70.49
2022-09-05T00:25:00.869Z,71.00
2022-09-05T00:25:43.594Z,70.26
2022-09-05T00:26:50.280Z,70.79
2022-09-05T00:27:42.589Z,70.59
2022-09-05T00:28:41.578Z,70.29
2022-09-05T00:31:06.550Z,69.89
2022-09-05T00:31:50.683Z,70.26
2022-09-05T00:31:53.957Z,69.75
2022-09-05T00:32:42.722Z,69.85
2022-09-05T00:33:41.552Z,69.85
2022-09-05T00:34:47.939Z,69.55
2022-09-05T00:35:42.533Z,70.26
2022-09-05T00:36:41.535Z,70.26
2022-09-05T00:37:41.525Z,69.95
2022-09-05T00:38:41.510Z,69.25
2022-09-05T00:39:41.540Z,70.26
2022-09-05T00:40:43.508Z,69.85
2022-09-05T00:41:41.484Z,69.95
2022-09-05T00:42:41.531Z,69.95
2022-09-05T00:43:41.485Z,69.85
2022-09-05T00:44:41.469Z,70.06
2022-09-05T00:45:41.497Z,70.26
2022-09-05T00:46:41.513Z,70.06
2022-09-05T00:47:41.455Z,69.75
2022-09-05T00:48:42.468Z,70.06
2022-09-05T00:49:41.462Z,69.95
2022-09-05T00:50:41.451Z,70.89
2022-09-05T00:51:41.438Z,71.40
2022-09-05T00:52:41.442Z,71.80
2022-09-05T00:53:41.455Z,71.70
2022-09-05T00:54:41.840Z,71.73
2022-09-05T00:55:42.397Z,72.14
2022-09-05T00:56:41.413Z,73.18
2022-09-05T00:57:41.399Z,74.22
2022-09-05T00:58:41.418Z,74.46
2022-09-05T00:59:41.411Z,74.87
2022-09-05T01:00:41.389Z,75.37
2022-09-05T01:01:41.552Z,76.62
2022-09-05T01:02:48.447Z,77.57
2022-09-05T01:03:42.396Z,77.71
2022-09-05T01:04:41.349Z,77.57
2022-09-05T01:05:41.397Z,78.62
2022-09-05T01:06:41.348Z,78.01
2022-09-05T01:07:44.212Z,77.91
2022-09-05T01:08:42.344Z,77.06
2022-09-05T01:09:41.349Z,76.82
2022-09-05T01:10:41.302Z,76.62
2022-09-05T01:11:41.300Z,75.81
2022-09-05T01:12:41.314Z,74.77
2022-09-05T01:13:41.288Z,74.43
2022-09-05T01:14:41.312Z,74.22
2022-09-05T01:15:41.329Z,73.79
2022-09-05T01:16:41.300Z,74.22
2022-09-05T01:17:41.271Z,73.58
2022-09-05T01:18:41.271Z,72.34
2022-09-05T01:19:41.258Z,72.48
2022-09-05T01:20:41.261Z,72.24
2022-09-05T01:21:41.259Z,72.88
2022-09-05T01:22:42.227Z,74.26
2022-09-05T01:23:41.269Z,74.80
2022-09-05T01:24:41.288Z,75.71
2022-09-05T01:25:41.227Z,76.46
2022-09-05T01:26:42.263Z,77.00
2022-09-05T01:28:55.015Z,77.67
2022-09-05T01:29:15.088Z,76.86
2022-09-05T01:29:42.184Z,76.72
2022-09-05T01:30:41.234Z,76.42
2022-09-05T01:31:41.190Z,76.69
2022-09-05T01:32:41.230Z,75.88
2022-09-05T01:33:41.184Z,74.97
2022-09-05T01:34:41.166Z,74.87
2022-09-05T01:35:41.168Z,74.53
2022-09-05T01:36:42.134Z,74.43
2022-09-05T01:37:41.151Z,73.89
2022-09-05T01:38:42.996Z,74.02
2022-09-05T01:40:14.493Z,73.82
2022-09-05T01:40:42.178Z,72.27
2022-09-05T01:41:41.102Z,72.48
2022-09-05T01:42:41.167Z,72.48
2022-09-05T01:43:41.092Z,72.07
2022-09-05T01:44:41.101Z,73.52
2022-09-05T01:45:41.121Z,73.02
2022-09-05T01:46:41.118Z,72.98
2022-09-05T01:47:41.121Z,71.87
2022-09-05T01:48:42.424Z,72.07
2022-09-05T01:49:42.041Z,72.88
2022-09-05T01:50:41.043Z,72.31
2022-09-05T01:51:41.051Z,73.32
2022-09-05T01:52:44.558Z,73.42
2022-09-05T01:53:42.075Z,74.37
2022-09-05T01:54:41.025Z,74.50
2022-09-05T01:56:04.506Z,76.26
2022-09-05T01:56:42.030Z,77.00
2022-09-05T01:57:41.012Z,78.55
2022-09-05T01:58:41.016Z,79.30
2022-09-05T01:59:41.026Z,79.80
2022-09-05T02:00:41.000Z,79.16
2022-09-05T02:01:41.043Z,78.35
2022-09-05T02:02:41.063Z,77.91
2022-09-05T02:03:41.969Z,77.71
2022-09-05T02:04:41.005Z,77.06
2022-09-05T02:05:48.405Z,76.35
2022-09-05T02:06:44.026Z,76.52
2022-09-05T02:07:40.941Z,75.71
2022-09-05T02:08:41.833Z,75.21
2022-09-05T02:09:40.975Z,74.90
2022-09-05T02:10:40.929Z,74.80
2022-09-05T02:11:40.916Z,75.01
2022-09-05T02:12:40.910Z,74.90
2022-09-05T02:13:40.905Z,76.26
2022-09-05T02:14:40.941Z,76.56
2022-09-05T02:15:40.914Z,76.50
2022-09-05T02:16:40.904Z,77.64
2022-09-05T02:17:50.495Z,80.05
2022-09-05T02:18:41.854Z,80.15
2022-09-05T02:19:41.881Z,81.40
2022-09-05T02:20:40.874Z,80.86
2022-09-05T02:21:55.403Z,80.15
2022-09-05T02:22:41.845Z,80.69
2022-09-05T02:23:42.444Z,81.37
2022-09-05T02:24:40.858Z,81.20
2022-09-05T02:26:01.152Z,82.05
2022-09-05T02:26:41.860Z,82.35
2022-09-05T02:28:03.852Z,82.96
2022-09-05T02:28:41.807Z,82.96
2022-09-05T02:29:40.883Z,82.76
2022-09-05T02:30:47.327Z,82.96
2022-09-05T02:31:41.828Z,83.47
2022-09-05T02:32:43.293Z,83.37
2022-09-05T02:33:40.798Z,82.62
2022-09-05T02:34:40.819Z,82.07
2022-09-05T02:35:40.811Z,80.86
2022-09-05T02:36:40.751Z,80.41
2022-09-05T02:39:09.149Z,79.91
2022-09-05T02:41:30.638Z,78.75
2022-09-05T02:45:01.853Z,78.15
2022-09-05T02:45:07.730Z,77.75
2022-09-05T02:45:08.247Z,79.64
2022-09-05T02:45:13.856Z,78.25
2022-09-05T02:45:18.802Z,78.28
2022-09-05T02:45:19.571Z,77.54
2022-09-05T02:45:41.839Z,80.59
2022-09-05T02:46:40.890Z,81.30
2022-09-05T02:47:40.675Z,82.01
2022-09-05T02:48:40.707Z,80.90
2022-09-05T02:54:07.904Z,80.99
2022-09-05T02:55:56.085Z,80.96
2022-09-05T02:57:25.983Z,81.37
2022-09-05T02:57:27.701Z,80.21
2022-09-05T02:57:39.948Z,78.59
2022-09-05T02:57:45.888Z,77.75
2022-09-05T02:58:04.220Z,78.79
2022-09-05T02:58:06.474Z,80.05
2022-09-05T02:58:07.592Z,76.73
2022-09-05T02:59:08.172Z,76.46
2022-09-05T02:59:42.593Z,77.61
2022-09-05T03:00:40.634Z,78.22
2022-09-05T03:01:40.662Z,78.83
2022-09-05T03:02:40.613Z,79.58
2022-09-05T03:03:40.559Z,79.94
2022-09-05T03:04:40.635Z,80.05
2022-09-05T03:05:40.560Z,79.27
2022-09-05T03:06:40.578Z,79.47
2022-09-05T03:07:40.548Z,78.66
2022-09-05T03:08:40.552Z,78.87
2022-09-05T03:09:40.528Z,80.57
2022-09-05T03:10:53.194Z,82.43
2022-09-05T03:11:41.546Z,83.14
2022-09-05T03:12:40.547Z,83.99
2022-09-05T03:13:48.827Z,85.05
2022-09-05T03:14:41.636Z,84.80
2022-09-05T03:15:40.571Z,84.95
2022-09-05T03:16:47.128Z,84.95
2022-09-05T03:17:41.514Z,84.74
2022-09-05T03:18:40.492Z,85.49
2022-09-05T03:19:46.135Z,85.80
2022-09-05T03:20:41.563Z,85.60
2022-09-05T03:21:40.430Z,85.70
2022-09-05T03:22:40.471Z,86.31
2022-09-05T03:23:40.453Z,85.80
2022-09-05T03:24:40.436Z,85.76
2022-09-05T03:25:40.413Z,84.60
2022-09-05T03:26:40.409Z,83.75
2022-09-05T03:27:40.434Z,82.94
2022-09-05T03:28:40.394Z,81.88
2022-09-05T03:29:40.422Z,81.44
2022-09-05T03:30:40.423Z,79.92
2022-09-05T03:31:40.408Z,79.47
2022-09-05T03:32:42.203Z,79.61
2022-09-05T03:33:40.357Z,80.73
2022-09-05T03:34:40.383Z,81.38
2022-09-05T03:35:40.346Z,81.07
2022-09-05T03:36:40.388Z,81.88
2022-09-05T03:37:40.453Z,81.68
2022-09-05T03:38:40.332Z,80.63
2022-09-05T03:39:40.361Z,80.32
2022-09-05T03:40:40.310Z,79.38
2022-09-05T03:41:41.007Z,78.91
2022-09-05T03:42:40.316Z,80.16
2022-09-05T03:43:40.296Z,80.77
2022-09-05T03:44:40.286Z,81.58
2022-09-05T03:45:40.264Z,81.07
2022-09-05T03:46:40.293Z,80.36
2022-09-05T03:47:40.265Z,80.53
2022-09-05T03:48:40.260Z,80.97
2022-09-05T03:56:06.948Z,81.04
2022-09-05T03:57:05.714Z,80.22
2022-09-05T03:57:11.909Z,80.02
2022-09-05T03:57:14.287Z,79.17
2022-09-05T03:57:14.288Z,78.56
2022-09-05T03:57:18.322Z,77.14
2022-09-05T03:57:26.846Z,78.66
2022-09-05T03:57:27.199Z,76.80
2022-09-05T03:57:42.982Z,76.09
2022-09-05T03:58:56.367Z,76.90
2022-09-05T03:59:42.208Z,78.26
2022-09-05T04:00:40.185Z,78.77
2022-09-05T04:05:41.951Z,78.66
2022-09-05T04:08:05.779Z,78.73
2022-09-05T04:08:06.780Z,78.02
2022-09-05T04:08:09.487Z,77.51
2022-09-05T04:08:16.079Z,76.77
2022-09-05T04:08:17.422Z,76.46
2022-09-05T04:08:17.423Z,76.67
2022-09-05T04:08:43.054Z,76.06
2022-09-05T04:09:51.130Z,75.15
2022-09-05T04:10:42.208Z,74.64
2022-09-05T04:11:40.099Z,76.74
2022-09-05T04:12:40.163Z,76.70
2022-09-05T04:13:40.085Z,76.74
2022-09-05T04:14:40.101Z,77.51
2022-09-05T04:15:40.079Z,76.64
2022-09-05T04:16:40.095Z,76.94
2022-09-05T04:17:40.111Z,77.59
2022-09-05T04:18:40.032Z,79.04
2022-09-05T04:19:40.059Z,78.33
2022-09-05T04:20:40.695Z,78.64
2022-09-05T04:21:41.057Z,78.70
2022-09-05T04:22:40.005Z,77.75
2022-09-05T04:23:40.013Z,78.19
2022-09-05T04:24:40.985Z,77.55
2022-09-05T04:25:40.029Z,76.94
2022-09-05T04:26:39.971Z,77.55
2022-09-05T04:27:40.965Z,76.43
2022-09-05T04:28:41.352Z,76.54
2022-09-05T04:29:40.005Z,76.29
2022-09-05T04:30:40.551Z,76.90
2022-09-05T04:31:40.989Z,76.43
2022-09-05T04:32:39.952Z,78.26
2022-09-05T04:33:39.963Z,78.84
2022-09-05T04:34:39.927Z,79.45
2022-09-05T04:35:39.934Z,80.40
2022-09-05T04:36:39.916Z,80.66
2022-09-05T04:37:48.969Z,79.96
2022-09-05T04:38:40.879Z,79.72
2022-09-05T04:39:39.920Z,78.09
2022-09-05T04:40:39.873Z,78.91
2022-09-05T04:41:40.268Z,78.26
2022-09-05T04:42:39.883Z,77.25
2022-09-05T04:43:39.859Z,77.04
2022-09-05T04:44:39.845Z,76.60
2022-09-05T04:45:39.914Z,76.60
2022-09-05T04:46:48.343Z,76.29
2022-09-05T04:47:40.834Z,76.74
2022-09-05T04:48:39.803Z,76.64
2022-09-05T04:49:39.800Z,77.41
2022-09-05T04:50:39.827Z,76.74
2022-09-05T04:51:39.787Z,76.74
2022-09-05T04:52:39.793Z,76.64
2022-09-05T04:53:39.792Z,76.70
2022-09-05T04:54:39.794Z,76.70
2022-09-05T04:55:39.753Z,76.80
2022-09-05T04:56:39.750Z,76.70
2022-09-05T04:57:39.742Z,76.46
2022-09-05T05:00:01.200Z,75.85
2022-09-05T05:04:06.593Z,76.26
2022-09-05T05:06:02.648Z,74.84
2022-09-05T05:06:03.997Z,75.04
2022-09-05T05:06:06.083Z,75.21
2022-09-05T05:06:12.749Z,74.51
2022-09-05T05:06:17.106Z,74.10
2022-09-05T05:06:17.110Z,74.00
2022-09-05T05:06:46.666Z,74.60
2022-09-05T05:07:41.866Z,74.51
2022-09-05T05:08:40.033Z,74.47
2022-09-05T05:09:39.682Z,74.10
2022-09-05T05:16:26.572Z,74.16
2022-09-05T05:17:55.153Z,72.17
2022-09-05T05:17:57.093Z,72.14
2022-09-05T05:18:04.037Z,73.83
2022-09-05T05:18:08.288Z,66.09
2022-09-05T05:18:08.631Z,68.98
2022-09-05T05:18:15.637Z,67.63
2022-09-05T05:18:15.975Z,70.56
2022-09-05T05:18:55.980Z,66.03
2022-09-05T05:19:41.658Z,64.99
2022-09-05T05:20:43.739Z,64.06
2022-09-05T05:21:39.550Z,62.45
2022-09-05T05:22:39.582Z,62.95
2022-09-05T05:23:39.567Z,62.88
2022-09-05T05:24:39.629Z,63.51
2022-09-05T05:25:39.526Z,63.42
2022-09-05T05:26:39.588Z,63.01
2022-09-05T05:27:39.568Z,62.58
2022-09-05T05:28:39.677Z,62.22
2022-09-05T05:29:39.534Z,60.98
2022-09-05T05:30:39.547Z,60.75
2022-09-05T05:31:39.537Z,59.42
2022-09-05T05:32:46.102Z,58.89
2022-09-05T05:33:40.519Z,57.96
2022-09-05T05:34:39.529Z,57.96
2022-09-05T05:35:48.206Z,57.46
2022-09-05T05:36:40.530Z,57.43
2022-09-05T05:37:39.462Z,57.53
2022-09-05T05:38:39.468Z,57.46
2022-09-05T05:39:39.537Z,58.16
2022-09-05T05:40:43.930Z,57.83
2022-09-05T05:41:40.483Z,58.23
2022-09-05T05:42:39.456Z,57.80
2022-09-05T05:43:41.818Z,57.40
2022-09-05T05:44:41.802Z,57.40
2022-09-05T05:45:39.475Z,57.20
2022-09-05T05:46:39.401Z,56.80
2022-09-05T05:47:39.403Z,58.00
2022-09-05T05:48:39.362Z,58.13
2022-09-05T05:49:39.381Z,58.94
2022-09-05T05:50:39.432Z,60.42
2022-09-05T05:52:01.234Z,62.16
2022-09-05T05:52:40.378Z,64.03
2022-09-05T05:53:43.376Z,64.03
2022-09-05T05:54:39.406Z,64.33
2022-09-05T05:55:51.399Z,63.42
2022-09-05T05:56:40.383Z,63.82
2022-09-05T05:57:39.328Z,63.73
2022-09-05T05:58:39.310Z,64.53
2022-09-05T05:59:39.297Z,65.06
2022-09-05T06:00:39.320Z,65.87
2022-09-05T06:01:39.437Z,66.20
2022-09-05T06:02:39.420Z,66.17
2022-09-05T06:03:39.552Z,65.67
2022-09-05T06:04:44.920Z,66.00
2022-09-05T06:05:40.295Z,66.30
2022-09-05T06:06:39.283Z,67.61
2022-09-05T06:08:22.526Z,67.38
2022-09-05T06:13:11.034Z,66.97
2022-09-05T06:14:52.139Z,67.04
2022-09-05T06:14:54.960Z,67.18
2022-09-05T06:14:55.328Z,66.41
2022-09-05T06:14:59.828Z,66.14
2022-09-05T06:15:05.340Z,66.00
2022-09-05T06:15:05.524Z,66.44
2022-09-05T06:15:40.249Z,65.91
2022-09-05T06:16:39.282Z,65.10
2022-09-05T06:17:39.244Z,64.70
2022-09-05T06:18:42.509Z,63.46
2022-09-05T06:20:34.454Z,63.23
2022-09-05T06:22:05.887Z,63.10
2022-09-05T06:22:06.615Z,63.00
2022-09-05T06:22:40.161Z,63.10
2022-09-05T06:23:40.234Z,63.20
2022-09-05T06:24:39.178Z,64.91
2022-09-05T06:25:39.181Z,63.60
2022-09-05T06:26:39.138Z,64.11
2022-09-05T06:28:01.499Z,63.70
2022-09-05T06:28:40.148Z,63.70
2022-09-05T06:29:39.780Z,63.93
2022-09-05T06:30:39.124Z,65.57
2022-09-05T06:31:39.158Z,65.91
2022-09-05T06:32:39.120Z,65.94
2022-09-05T06:33:39.135Z,67.35
2022-09-05T06:34:39.129Z,67.04
2022-09-05T06:35:39.066Z,67.24
2022-09-05T06:36:39.074Z,67.41
2022-09-05T06:37:39.078Z,67.01
2022-09-05T06:38:39.051Z,67.61
2022-09-05T06:39:39.147Z,67.58
2022-09-05T06:40:39.061Z,66.88
2022-09-05T06:41:39.062Z,66.08
2022-09-05T06:42:43.797Z,65.97
2022-09-05T06:43:39.020Z,65.67
2022-09-05T06:44:39.055Z,64.94
2022-09-05T06:45:39.029Z,64.94
2022-09-05T06:46:54.994Z,64.97
2022-09-05T06:47:40.132Z,65.37
2022-09-05T06:48:46.438Z,66.08
2022-09-05T06:49:42.817Z,66.67
2022-09-05T06:51:07.970Z,67.51
2022-09-05T06:51:44.173Z,67.91
2022-09-05T06:52:39.987Z,68.32
2022-09-05T06:53:39.018Z,69.02
2022-09-05T06:54:40.000Z,67.51
2022-09-05T06:55:39.973Z,67.58
2022-09-05T06:56:39.022Z,67.58
2022-09-05T06:57:43.876Z,67.25
2022-09-05T06:58:39.959Z,66.35
2022-09-05T06:59:38.930Z,66.44
2022-09-05T07:00:39.032Z,65.84
2022-09-05T07:02:00.245Z,66.98
2022-09-05T07:02:58.767Z,66.75
2022-09-05T07:03:39.905Z,66.85
2022-09-05T07:05:37.563Z,67.85
2022-09-05T07:05:44.798Z,67.55
2022-09-05T07:06:52.419Z,66.64
2022-09-05T07:07:45.166Z,67.75
2022-09-05T07:08:40.880Z,70.06
2022-09-05T07:09:38.871Z,71.90
2022-09-05T07:10:39.535Z,71.50
2022-09-05T07:11:39.885Z,71.47
2022-09-05T07:12:38.862Z,70.32
2022-09-05T07:13:44.879Z,70.83
2022-09-05T07:14:40.835Z,69.22
2022-09-05T07:15:38.848Z,69.92
2022-09-05T07:16:39.347Z,69.79
2022-09-05T07:18:06.246Z,68.95
2022-09-05T07:18:40.870Z,68.76
2022-09-05T07:19:38.856Z,68.62
2022-09-05T07:21:17.518Z,68.22
2022-09-05T07:21:39.771Z,67.38
2022-09-05T07:22:47.599Z,67.49
2022-09-05T07:24:06.887Z,67.15
2022-09-05T07:24:54.187Z,66.62
2022-09-05T07:25:39.895Z,65.92
2022-09-05T07:26:51.572Z,65.92
2022-09-05T07:27:41.961Z,65.22
2022-09-05T07:28:39.791Z,65.42
2022-09-05T07:29:38.758Z,64.69
2022-09-05T07:30:38.722Z,64.48
2022-09-05T07:31:38.775Z,64.55
2022-09-05T07:32:38.773Z,64.45
2022-09-05T07:33:38.696Z,64.06
2022-09-05T07:34:38.693Z,64.28
2022-09-05T07:35:41.937Z,65.39
2022-09-05T07:36:38.690Z,65.55
2022-09-05T07:37:38.756Z,65.48
2022-09-05T07:38:54.876Z,65.75
2022-09-05T07:39:39.713Z,67.18
2022-09-05T07:40:38.700Z,67.69
2022-09-05T07:41:38.769Z,67.35
2022-09-05T07:42:38.651Z,67.22
2022-09-05T07:43:38.628Z,65.89
2022-09-05T07:44:38.710Z,65.48
2022-09-05T07:45:42.545Z,65.12
2022-09-05T07:46:39.614Z,66.55
2022-09-05T07:47:38.604Z,65.95
2022-09-05T07:48:38.631Z,66.62
2022-09-05T07:49:45.620Z,66.59
2022-09-05T07:52:30.141Z,65.12
2022-09-05T07:55:45.099Z,65.49
2022-09-05T07:56:50.568Z,63.96
2022-09-05T07:56:50.902Z,60.48
2022-09-05T07:56:58.767Z,61.18
2022-09-05T07:57:06.384Z,61.73
2022-09-05T07:57:13.283Z,60.80
2022-09-05T07:57:51.057Z,60.28
2022-09-05T07:58:39.547Z,60.65
2022-09-05T07:59:38.543Z,60.32
2022-09-05T08:00:38.557Z,60.49
2022-09-05T08:01:39.708Z,58.29
2022-09-05T08:02:40.942Z,58.92
2022-09-05T08:03:39.538Z,58.83
2022-09-05T08:04:38.516Z,59.38
2022-09-05T08:05:38.520Z,60.58
2022-09-05T08:07:45.859Z,60.58
2022-09-05T08:07:49.929Z,59.98
2022-09-05T08:08:40.473Z,59.45
2022-09-05T08:10:07.089Z,59.35
2022-09-05T08:11:14.473Z,59.82
2022-09-05T08:11:39.439Z,59.02
2022-09-05T08:13:22.934Z,58.89
2022-09-05T08:13:39.750Z,59.27
2022-09-05T08:14:44.713Z,59.23
2022-09-05T08:16:08.245Z,57.92
2022-09-05T08:16:39.493Z,58.18
2022-09-05T08:17:38.435Z,56.07
2022-09-05T08:18:38.446Z,55.67
2022-09-05T08:19:38.395Z,56.04
2022-09-05T08:20:38.444Z,56.21
2022-09-05T08:21:40.099Z,54.30
2022-09-05T08:22:39.430Z,53.88
2022-09-05T08:23:39.365Z,54.28
2022-09-05T08:24:38.435Z,52.47
2022-09-05T08:25:57.035Z,52.86
2022-09-05T08:26:39.357Z,53.56
2022-09-05T08:27:38.389Z,52.47
2022-09-05T08:28:39.089Z,52.09
2022-09-05T08:29:38.447Z,54.80
2022-09-05T08:30:38.329Z,56.23
2022-09-05T08:31:41.919Z,57.10
2022-09-05T08:32:38.358Z,58.20
2022-09-05T08:33:39.295Z,57.70
2022-09-05T08:34:44.996Z,58.27
2022-09-05T08:35:39.350Z,57.57
2022-09-05T08:36:38.301Z,57.54
2022-09-05T08:37:38.378Z,57.82
2022-09-05T08:38:40.434Z,56.99
2022-09-05T08:39:38.338Z,55.77
2022-09-05T08:40:38.313Z,54.25
2022-09-05T08:41:49.902Z,53.76
2022-09-05T08:42:39.224Z,54.06
2022-09-05T08:46:38.097Z,55.44
2022-09-05T08:46:41.511Z,54.06
2022-09-05T08:46:42.699Z,52.44
2022-09-05T08:46:49.128Z,53.96
2022-09-05T08:47:45.160Z,54.48
2022-09-05T08:48:39.329Z,54.50
2022-09-05T08:49:41.359Z,55.47
2022-09-05T08:50:40.229Z,54.58
2022-09-05T08:51:41.199Z,55.00
2022-09-05T08:52:39.273Z,54.48
2022-09-05T08:53:46.185Z,54.65
2022-09-05T08:54:39.176Z,54.00
2022-09-05T08:55:38.144Z,53.38
2022-09-05T08:56:38.166Z,52.09
2022-09-05T08:57:38.162Z,52.72
2022-09-05T08:58:38.134Z,52.91
2022-09-05T08:59:38.122Z,53.11
2022-09-05T09:00:39.236Z,52.29
2022-09-05T09:02:14.442Z,52.19
2022-09-05T09:02:47.741Z,52.56
2022-09-05T09:03:39.240Z,51.45
2022-09-05T09:05:01.734Z,51.42
2022-09-05T09:05:56.756Z,50.41
2022-09-05T09:06:39.124Z,50.31
2022-09-05T09:07:47.506Z,50.21
2022-09-05T09:08:39.093Z,50.09
2022-09-05T09:09:38.132Z,49.79
2022-09-05T09:10:38.064Z,49.19
2022-09-05T09:11:38.041Z,48.90
2022-09-05T09:12:38.036Z,49.99
2022-09-05T09:13:38.073Z,50.81
2022-09-05T09:14:38.043Z,50.34
2022-09-05T09:15:38.016Z,51.45
2022-09-05T09:16:38.003Z,52.04
2022-09-05T09:17:38.077Z,49.91
2022-09-05T09:18:38.132Z,50.60
2022-09-05T09:19:38.030Z,50.21
2022-09-05T09:20:38.035Z,51.05
2022-09-05T09:21:38.968Z,51.15
2022-09-05T09:22:37.973Z,50.16
2022-09-05T09:23:37.952Z,51.40
2022-09-05T09:24:38.002Z,51.00
2022-09-05T09:25:37.990Z,52.39
2022-09-05T09:26:37.937Z,51.37
2022-09-05T09:28:46.825Z,51.15
2022-09-05T09:28:50.322Z,50.98
2022-09-05T09:29:38.966Z,51.25
2022-09-05T09:30:38.009Z,50.26
2022-09-05T09:31:37.989Z,52.07
2022-09-05T09:32:37.895Z,51.45
2022-09-05T09:33:37.995Z,50.73
2022-09-05T09:34:39.669Z,49.91
2022-09-05T09:35:38.927Z,48.80
2022-09-05T09:36:37.925Z,49.59
2022-09-05T09:37:50.838Z,49.96
2022-09-05T09:38:38.907Z,48.77
2022-09-05T09:39:39.793Z,49.10
2022-09-05T09:40:37.870Z,49.29
2022-09-05T09:41:37.912Z,49.71
2022-09-05T09:42:37.880Z,49.94
2022-09-05T09:43:37.818Z,50.04
2022-09-05T09:44:37.853Z,50.71
2022-09-05T09:45:37.821Z,49.59
2022-09-05T09:46:39.316Z,50.09
2022-09-05T09:47:37.804Z,49.00
2022-09-05T09:48:37.841Z,49.07
2022-09-05T09:49:37.803Z,48.65
2022-09-05T09:50:37.885Z,49.02
2022-09-05T09:51:38.809Z,48.11
2022-09-05T09:52:37.803Z,47.60
2022-09-05T09:53:37.802Z,46.85
2022-09-05T09:54:37.761Z,49.17
2022-09-05T09:55:37.752Z,49.19
2022-09-05T09:56:37.776Z,49.22
2022-09-05T09:57:37.751Z,48.80
2022-09-05T09:58:37.795Z,49.07
2022-09-05T09:59:45.362Z,47.86
2022-09-05T10:00:38.736Z,48.53
2022-09-05T10:01:37.853Z,48.80
2022-09-05T10:07:13.349Z,48.31
2022-09-05T10:07:17.029Z,47.30
2022-09-05T10:10:38.326Z,47.40
2022-09-05T10:10:38.668Z,47.79
2022-09-05T10:10:44.492Z,46.17
2022-09-05T10:10:50.966Z,45.40
2022-09-05T10:10:53.743Z,46.86
2022-09-05T10:11:01.343Z,48.28
2022-09-05T10:11:09.534Z,46.59
2022-09-05T10:11:56.761Z,49.15
2022-09-05T10:12:39.656Z,47.96
2022-09-05T10:13:37.670Z,48.14
2022-09-05T10:14:49.995Z,46.14
2022-09-05T10:15:38.736Z,47.50
2022-09-05T10:16:37.712Z,46.39
2022-09-05T10:17:37.620Z,45.38
2022-09-05T10:18:37.678Z,45.95
2022-09-05T10:20:39.702Z,44.72
2022-09-05T10:21:37.654Z,44.33
2022-09-05T10:22:38.063Z,43.59
2022-09-05T10:23:37.602Z,43.88
2022-09-05T10:24:38.575Z,44.47
2022-09-05T10:25:37.661Z,44.35
2022-09-05T10:26:37.752Z,44.84
2022-09-05T10:27:37.576Z,44.25
2022-09-05T10:28:38.650Z,43.56
2022-09-05T10:29:38.669Z,44.10
2022-09-05T10:31:39.883Z,45.74
2022-09-05T10:33:33.839Z,46.88
2022-09-05T10:35:11.368Z,47.59
2022-09-05T10:35:13.522Z,48.82
2022-09-05T10:35:13.602Z,48.87
2022-09-05T10:35:38.640Z,49.74
2022-09-05T10:36:37.557Z,47.83
2022-09-05T10:37:37.661Z,47.83
2022-09-05T10:38:37.525Z,47.22
2022-09-05T10:39:37.604Z,48.40
2022-09-05T10:41:07.979Z,48.11
2022-09-05T10:41:38.489Z,47.71
2022-09-05T10:42:43.329Z,48.03
2022-09-05T10:43:38.501Z,48.82
2022-09-05T10:44:37.482Z,48.45
2022-09-05T10:45:38.734Z,46.35
2022-09-05T10:46:50.886Z,46.72
2022-09-05T10:47:39.522Z,46.03
2022-09-05T10:48:37.535Z,46.33
2022-09-05T10:49:37.480Z,46.82
2022-09-05T10:50:37.511Z,46.50
2022-09-05T10:51:37.809Z,47.52
2022-09-05T10:52:37.484Z,48.11
2022-09-05T10:53:39.632Z,46.84
2022-09-05T10:54:37.465Z,48.30
2022-09-05T10:55:37.507Z,45.68
2022-09-05T10:56:37.416Z,45.39
2022-09-05T10:57:37.402Z,46.06
2022-09-05T10:59:30.370Z,43.59
2022-09-05T11:02:17.232Z,43.51
2022-09-05T11:02:22.429Z,44.23
2022-09-05T11:02:28.640Z,43.83
2022-09-05T11:02:42.338Z,44.05
2022-09-05T11:03:39.414Z,44.54
2022-09-05T11:04:39.133Z,45.93
2022-09-05T11:05:38.542Z,45.73
2022-09-05T11:06:37.408Z,45.63
2022-09-05T11:07:37.333Z,46.82
2022-09-05T11:08:37.328Z,46.11
2022-09-05T11:09:37.340Z,45.73
2022-09-05T11:10:37.314Z,44.54
2022-09-05T11:11:37.310Z,44.64
2022-09-05T11:12:37.366Z,45.21
2022-09-05T11:13:37.312Z,43.95
2022-09-05T11:14:37.356Z,43.63
2022-09-05T11:15:37.317Z,43.93
2022-09-05T11:16:38.361Z,43.51
2022-09-05T11:17:37.267Z,43.49
2022-09-05T11:18:56.239Z,42.97
2022-09-05T11:19:38.257Z,41.08
2022-09-05T11:20:37.277Z,41.06
2022-09-05T11:21:37.286Z,41.24
2022-09-05T11:22:37.269Z,42.52
2022-09-05T11:23:37.346Z,40.43
2022-09-05T11:24:37.299Z,40.55
2022-09-05T11:25:40.579Z,39.73
2022-09-05T11:26:37.349Z,41.61
2022-09-05T11:27:37.297Z,39.64
2022-09-05T11:28:37.792Z,39.12
2022-09-05T11:29:38.206Z,39.12
2022-09-05T11:30:38.876Z,39.56
2022-09-05T11:32:26.989Z,39.86
2022-09-05T11:36:03.986Z,40.37
2022-09-05T11:39:47.154Z,38.42
2022-09-05T11:39:48.595Z,38.42
2022-09-05T11:39:51.719Z,39.81
2022-09-05T11:39:55.960Z,38.95
2022-09-05T11:39:58.224Z,40.92
2022-09-05T11:40:09.703Z,41.71
2022-09-05T11:40:10.855Z,40.80
2022-09-05T11:40:54.899Z,41.31
2022-09-05T11:41:39.169Z,40.82
2022-09-05T11:42:37.136Z,40.41
2022-09-05T11:43:37.114Z,40.33
2022-09-05T11:44:37.187Z,41.12
2022-09-05T11:45:37.109Z,41.39
2022-09-05T11:46:37.313Z,39.68
2022-09-05T11:47:42.233Z,39.46
2022-09-05T11:48:39.080Z,39.48
2022-09-05T11:49:38.170Z,41.10
2022-09-05T11:50:37.057Z,40.58
2022-09-05T11:51:37.156Z,40.27
2022-09-05T11:52:37.101Z,39.17
2022-09-05T11:53:37.065Z,38.56
2022-09-05T11:54:37.045Z,39.44
2022-09-05T11:55:37.056Z,38.67
2022-09-05T11:56:44.047Z,38.18
2022-09-05T11:57:38.057Z,38.20
2022-09-05T11:58:45.402Z,38.87
2022-09-05T11:59:38.046Z,38.59
2022-09-05T12:00:37.985Z,38.77
2022-09-05T12:01:43.670Z,38.49
2022-09-05T12:02:38.061Z,38.65
2022-09-05T12:03:57.729Z,38.65
2022-09-05T12:04:38.050Z,38.16
2022-09-05T12:05:48.291Z,37.66
2022-09-05T12:06:37.976Z,38.35
2022-09-05T12:07:38.015Z,37.76
2022-09-05T12:08:37.012Z,37.98
2022-09-05T12:09:36.987Z,37.78
2022-09-05T12:10:45.974Z,37.37
2022-09-05T12:11:38.051Z,38.32
2022-09-05T12:12:41.585Z,38.71
2022-09-05T12:13:37.981Z,37.61
2022-09-05T12:14:36.917Z,36.63
2022-09-05T12:15:37.019Z,36.71
2022-09-05T12:16:36.974Z,37.18
2022-09-05T12:17:36.920Z,35.11
2022-09-05T12:18:36.893Z,35.21
2022-09-05T12:19:36.884Z,35.20
2022-09-05T12:20:43.032Z,34.61
2022-09-05T12:21:38.977Z,34.90
2022-09-05T12:22:36.845Z,34.90
2022-09-05T12:23:58.102Z,34.89
2022-09-05T12:25:25.590Z,34.10
2022-09-05T12:27:39.427Z,35.53
2022-09-05T12:27:41.542Z,35.02
2022-09-05T12:27:46.023Z,35.84
2022-09-05T12:29:33.965Z,35.36
2022-09-05T12:29:47.033Z,35.76
2022-09-05T12:30:57.086Z,36.78
2022-09-05T12:33:07.533Z,36.80
2022-09-05T12:34:45.023Z,36.99
2022-09-05T12:36:01.892Z,37.59
2022-09-05T12:36:07.610Z,38.06
2022-09-05T12:36:12.758Z,37.37
2022-09-05T12:40:21.382Z,35.05
2022-09-05T12:40:25.422Z,36.36
2022-09-05T12:40:44.684Z,36.05
2022-09-05T12:41:32.461Z,36.92
2022-09-05T12:41:37.514Z,36.23
2022-09-05T12:42:08.388Z,35.74
2022-09-05T12:42:49.739Z,35.86
2022-09-05T12:44:31.203Z,35.54
2022-09-05T12:44:44.299Z,34.66
2022-09-05T12:45:38.194Z,35.07
2022-09-05T12:46:36.701Z,35.48
2022-09-05T12:47:36.763Z,36.36
2022-09-05T12:48:38.481Z,34.87
2022-09-05T12:49:36.735Z,35.07
2022-09-05T12:50:36.801Z,35.05
2022-09-05T12:51:46.294Z,37.22
2022-09-05T12:52:37.770Z,36.72
2022-09-05T12:53:36.643Z,34.86